Airfield :
LOGIN :

Register | Disclaimer

   EN    FR    IT 

 










Legend :    VFR   Marginal VFR   IFR   Intensive IFR   Very Intensive IFR
Visi :
Ceiling :
>= 8 km
>= 3000ft
5 to 8 km
1000 to 3000 ft
1500m to 5 km
500 to 1000 ft
800 to 1500m
200 to 500 ft
< 800m
< 200 ft
Symbols :   Thunderstorms  Fog  Heavy snow  Heavy precipitations  Wind > 20 kt
SIGMETs :     Misc.  Thunderstorms  Icing  Turbulence  Mountain Waves  Volcanic Ashes






- Airport Elevation : 231 ft
- IATA code : WTN


EGXW - RAF Waddington

CURRENT METAR :
  • 192350Z AUTO 32007KT 9999 NCD 04/M01 Q1025

EXPIRED METARs :
  • 192320Z AUTO 32009KT 9999 NCD 04/M01 Q1024
  • 192250Z AUTO 31007KT 9999 NCD 04/M01 Q1024
  • 192220Z AUTO 31008KT 9999 FEW053/// 04/M01 Q1024
  • 192150Z AUTO 32007KT 9999 NCD 05/M02 Q1024
  • 192120Z AUTO 34010KT 9999 NCD 05/M02 Q1024
  • 192050Z AUTO 35013KT 9999 NCD 06/M02 Q1023
  • 192020Z AUTO 35009KT 9999 FEW034/// 06/M01 Q1023
  • 191950Z AUTO 36013KT 9999 BKN032/// SCT075/// 06/M01 Q1023
  • 191920Z AUTO 36013KT 9999 SCT052/// 07/00 Q1022

TAF TAF EGXW
Valid from the 19 at 15:00 until the 20 at 09:00 UTC


191340Z 1915/2009 36013KT 9999 FEW040
TEMPO 1915/1918 35015G25KT



MET'MAP, your aeronautical weather chart ! - Copyright ORBIFLY December 2007 - Disclaimer

ORBIFLY MET'MAP TEAM :

Programming & Development : Alexandra Zaïnal
Original concept : Baudouin d'Aumeries
Technical & hardware support : Manuel Goepfert
Assistance : Marc-Olivier Méhu




SOURCES & CREDITS :

   NOAA